Time;durP1;ratioP1;P1;durP2;ratioP2;P2;SDS_P1;SDS_P2;PMS_P1;PMS_P2;Temp;Humidity;BMP_temperature;BMP_pressure;BME280_temperature;BME280_humidity;BME280_pressure;Samples;Min_cycle;Max_cycle;Signal;HPM_P1;HPM_P2
2022/09/30 00:00:25;;;;;;;;;;;;;;;20.19;61.69;100154.58;2215403;80;50846;-76
2022/09/30 00:03:27;;;;;;;;;;;;;;;20.19;61.64;100149.21;2214912;80;50300;-77
2022/09/30 00:06:28;;;;;;;;;;;;;;;;;;2169048;80;52672;-77
2022/09/30 00:09:30;;;;;;;;;;;;;;;20.17;61.64;100162.02;2221938;79;50393;-78
2022/09/30 00:12:31;;;;;;;;;;;;;;;;;;2228191;79;50550;-77
2022/09/30 00:15:32;;;;;;;;;;;;;;;20.16;61.65;100159.00;2251935;79;51618;-77
2022/09/30 00:18:33;;;;;;;;;;;;;;;;;;2229246;79;53600;-77
2022/09/30 00:21:35;;;;;;;;;;;;;;;20.16;61.50;100162.20;2227691;79;49706;-77
2022/09/30 00:24:36;;;;;;;;;;;;;;;20.13;61.61;100170.68;2228711;79;50314;-77
2022/09/30 00:27:38;;;;;;;;;;;;;;;20.13;61.52;100167.47;2229181;79;50825;-77
2022/09/30 00:30:39;;;;;;;;;;;;;;;20.11;61.50;100173.56;2251812;79;50762;-77
2022/09/30 00:33:41;;;;;;;;;;;;;;;20.10;61.54;100170.58;2228752;79;51414;-77
2022/09/30 00:36:43;;;;;;;;;;;;;;;20.11;61.47;100170.05;2228887;79;51447;-77
2022/09/30 00:39:45;;;;;;;;;;;;;;;20.10;61.44;100166.55;2218103;79;50735;-77
2022/09/30 00:42:46;;;;;;;;;;;;;;;20.10;61.45;100167.06;2249902;79;51532;-77
2022/09/30 00:45:52;;;;;;;;;;;;;;;20.07;61.51;100164.27;2228017;77;51163;-77
2022/09/30 00:48:54;;;;;;;;;;;;;;;20.06;61.48;100173.34;2252259;79;50475;-76
2022/09/30 00:51:55;;;;;;;;;;;;;;;20.06;61.46;100172.00;2233120;79;50334;-77
2022/09/30 00:54:58;;;;;;;;;;;;;;;20.05;61.45;100173.56;2179967;81;50788;-76
2022/09/30 00:57:59;;;;;;;;;;;;;;;20.05;61.36;100178.94;2158379;81;49644;-77
2022/09/30 01:01:01;;;;;;;;;;;;;;;20.04;61.38;100179.46;2180292;81;50373;-76
2022/09/30 01:04:04;;;;;;;;;;;;;;;20.02;61.38;100165.41;2181557;81;51541;-77
2022/09/30 01:07:07;;;;;;;;;;;;;;;20.01;61.43;100174.47;2181910;80;50733;-77
2022/09/30 01:10:08;;;;;;;;;;;;;;;20.01;61.31;100171.78;2198228;80;51070;-77
2022/09/30 01:13:10;;;;;;;;;;;;;;;20.00;61.35;100182.23;2192785;80;50706;-77
2022/09/30 01:16:32;;;;;;;;;;;;;;;20.01;61.31;100178.50;2215350;80;50331;-77
2022/09/30 01:19:56;;;;;;;;;;;;;;;20.00;61.26;100180.89;2215509;80;50815;-77
2022/09/30 01:23:04;;;;;;;;;;;;;;;19.99;61.31;100183.27;2216535;79;22299;-79
2022/09/30 01:26:17;;;;;;;;;;;;;;;19.99;61.28;100188.64;2206733;80;50827;-78
2022/09/30 01:29:36;;;;;;;;;;;;;;;19.98;61.15;100189.66;2206389;80;50518;-76
2022/09/30 01:32:42;;;;;;;;;;;;;;;19.97;61.31;100190.70;2248382;79;50412;-78
2022/09/30 01:35:55;;;;;;;;;;;;;;;19.94;61.30;100192.45;2253818;77;50870;-76
2022/09/30 01:39:13;;;;;;;;;;;;;;;19.95;61.19;100192.75;2255543;79;50199;-78
2022/09/30 01:42:20;;;;;;;;;;;;;;;19.93;61.22;100184.06;2252101;79;50954;-77
2022/09/30 01:45:23;;;;;;;;;;;;;;;19.93;61.17;100180.86;2251829;79;50574;-77
2022/09/30 01:48:32;;;;;;;;;;;;;;;19.91;61.22;100192.34;2209824;79;52653;-77
2022/09/30 01:51:41;;;;;;;;;;;;;;;19.91;61.19;100187.46;2251920;79;50838;-77
2022/09/30 01:54:44;;;;;;;;;;;;;;;19.91;61.10;100188.31;2251936;79;50830;-76
2022/09/30 01:57:48;;;;;;;;;;;;;;;19.89;61.24;100189.55;2212198;79;49590;-76
2022/09/30 02:00:51;;;;;;;;;;;;;;;19.88;60.14;100191.91;2191205;80;51868;-74
2022/09/30 02:03:54;;;;;;;;;;;;;;;19.89;60.80;100183.66;2215085;80;51561;-74
2022/09/30 02:06:58;;;;;;;;;;;;;;;19.92;60.96;100174.37;2215276;79;50700;-75
2022/09/30 02:10:01;;;;;;;;;;;;;;;19.92;60.75;100177.88;2215134;80;50490;-74
2022/09/30 02:13:04;;;;;;;;;;;;;;;19.92;60.80;100174.37;2192767;80;52760;-74
2022/09/30 02:16:11;;;;;;;;;;;;;;;19.92;60.77;100174.37;2214839;79;51662;-74
2022/09/30 02:19:21;;;;;;;;;;;;;;;19.91;60.72;100178.92;2214823;80;22758;-74
2022/09/30 02:22:25;;;;;;;;;;;;;;;19.90;60.79;100181.80;2215363;80;50145;-75
2022/09/30 02:25:28;;;;;;;;;;;;;;;19.90;60.72;100184.48;2191741;79;51353;-75
2022/09/30 02:28:29;;;;;;;;;;;;;;;19.89;60.71;100191.71;2185598;79;50447;-74
2022/09/30 02:31:34;;;;;;;;;;;;;;;19.89;60.67;100191.71;2251936;79;50771;-75
2022/09/30 02:34:38;;;;;;;;;;;;;;;19.87;60.68;100191.60;2251633;79;51527;-75
2022/09/30 02:37:44;;;;;;;;;;;;;;;19.87;60.69;100195.63;2188199;80;51140;-73
2022/09/30 02:40:47;;;;;;;;;;;;;;;19.86;60.65;100198.84;2237527;79;50424;-74
2022/09/30 02:43:49;;;;;;;;;;;;;;;19.87;60.66;100194.29;2251496;79;51681;-73
2022/09/30 02:46:52;;;;;;;;;;;;;;;19.87;60.64;100196.45;2251834;79;50257;-73
2022/09/30 02:49:55;;;;;;;;;;;;;;;19.86;60.61;100195.30;2227290;79;51414;-73
2022/09/30 02:52:58;;;;;;;;;;;;;;;19.85;60.57;100200.37;2244289;79;50439;-73
2022/09/30 02:56:07;;;;;;;;;;;;;;;19.84;60.52;100205.44;2250241;77;50415;-74
2022/09/30 02:59:09;;;;;;;;;;;;;;;19.86;60.51;100210.06;2203717;80;52336;-73
2022/09/30 03:02:11;;;;;;;;;;;;;;;19.87;60.40;100217.93;2189669;80;51007;-74
2022/09/30 03:05:13;;;;;;;;;;;;;;;19.82;60.19;100209.66;2209484;80;50742;-73
2022/09/30 03:08:14;;;;;;;;;;;;;;;19.82;60.27;100213.68;2209996;80;51629;-74
2022/09/30 03:11:17;;;;;;;;;;;;;;;19.90;59.56;100219.38;2209813;80;50741;-73
2022/09/30 03:14:30;;;;;;;;;;;;;;;19.92;59.82;100214.65;2209565;80;50469;-73
2022/09/30 03:17:52;;;;;;;;;;;;;;;19.96;60.02;100215.88;2209345;80;51683;-74
2022/09/30 03:21:01;;;;;;;;;;;;;;;20.02;59.81;100220.45;2209271;80;51739;-74
2022/09/30 03:24:13;;;;;;;;;;;;;;;20.09;59.58;100214.59;2209646;80;50496;-73
2022/09/30 03:27:16;;;;;;;;;;;;;;;20.13;59.41;100217.16;2211685;80;50773;-74
2022/09/30 03:30:19;;;;;;;;;;;;;;;20.19;59.18;100217.71;2213975;80;50778;-73
2022/09/30 03:33:25;;;;;;;;;;;;;;;20.22;59.05;100225.36;2215168;80;51520;-74
2022/09/30 03:36:28;;;;;;;;;;;;;;;20.27;58.89;100230.61;2215267;80;51659;-76
2022/09/30 03:39:34;;;;;;;;;;;;;;;20.29;58.79;100227.22;2192444;80;50174;-74
2022/09/30 03:42:40;;;;;;;;;;;;;;;20.29;58.74;100244.68;2214205;79;50519;-74
2022/09/30 03:45:46;;;;;;;;;;;;;;;20.27;58.74;100244.90;2209167;79;50385;-74
2022/09/30 03:48:48;;;;;;;;;;;;;;;20.26;58.74;100239.20;2207672;79;22298;-75
2022/09/30 03:51:49;;;;;;;;;;;;;;;20.27;58.79;100244.05;2188676;80;49768;-75
2022/09/30 03:54:51;;;;;;;;;;;;;;;20.28;58.78;100239.83;2187467;80;50799;-74
2022/09/30 03:57:53;;;;;;;;;;;;;;;20.30;58.66;100240.98;2194957;80;50836;-74
2022/09/30 04:00:56;;;;;;;;;;;;;;;20.28;58.59;100249.23;2208624;80;50502;-75
2022/09/30 04:03:57;;;;;;;;;;;;;;;20.28;58.58;100245.72;2165494;80;52830;-74
2022/09/30 04:06:59;;;;;;;;;;;;;;;20.27;58.62;100241.36;2162556;80;52524;-75
2022/09/30 04:10:00;;;;;;;;;;;;;;;20.25;58.63;100255.02;2206319;80;51578;-75
2022/09/30 04:13:02;;;;;;;;;;;;;;;20.26;58.70;100253.16;2187654;80;50135;-74
2022/09/30 04:16:06;;;;;;;;;;;;;;;20.30;58.74;100265.16;2167532;80;51123;-74
2022/09/30 04:19:08;;;;;;;;;;;;;;;20.30;58.59;100261.95;2203663;79;51667;-74
2022/09/30 04:22:10;;;;;;;;;;;;;;;20.29;58.48;100261.62;2204269;80;51627;-74
2022/09/30 04:25:11;;;;;;;;;;;;;;;20.28;58.49;100268.03;2192534;80;51567;-73
2022/09/30 04:28:13;;;;;;;;;;;;;;;20.26;58.51;100271.44;2155147;80;49657;-74
2022/09/30 04:31:20;;;;;;;;;;;;;;;20.25;58.57;100273.00;2172869;82;50261;-74
2022/09/30 04:34:17;;;;;;;;;;;;;;;20.25;58.70;100274.34;2152337;82;22348;-74
2022/09/30 04:37:20;;;;;;;;;;;;;;;20.28;58.71;100272.59;2172145;82;51577;-74
2022/09/30 04:40:21;;;;;;;;;;;;;;;20.31;58.57;100279.72;2154283;82;49360;-74
2022/09/30 04:43:23;;;;;;;;;;;;;;;20.31;58.40;100277.55;2173680;82;50447;-74
2022/09/30 04:46:25;;;;;;;;;;;;;;;20.29;58.37;100282.30;2178331;81;50426;-77
2022/09/30 04:49:26;;;;;;;;;;;;;;;20.29;58.37;100295.20;2157374;81;50438;-75
2022/09/30 04:52:28;;;;;;;;;;;;;;;20.27;58.38;100297.29;2158541;81;50110;-76
2022/09/30 04:55:29;;;;;;;;;;;;;;;20.27;58.49;100300.47;2156184;81;50454;-76
2022/09/30 04:58:34;;;;;;;;;;;;;;;20.28;58.50;100304.83;2191641;80;51570;-75
2022/09/30 05:01:35;;;;;;;;;;;;;;;20.31;58.50;100312.48;2179655;80;51617;-75
2022/09/30 05:04:37;;;;;;;;;;;;;;;20.34;58.43;100318.27;2158309;81;51665;-74
2022/09/30 05:07:39;;;;;;;;;;;;;;;20.36;58.51;100314.86;2180091;81;51593;-75
2022/09/30 05:10:41;;;;;;;;;;;;;;;20.35;58.71;100319.12;2180210;81;51460;-78
2022/09/30 05:13:42;;;;;;;;;;;;;;;20.33;58.80;100315.80;2157776;81;52263;-78
2022/09/30 05:16:44;;;;;;;;;;;;;;;20.32;58.93;100312.28;2158414;81;52003;-78
2022/09/30 05:19:45;;;;;;;;;;;;;;;20.32;58.86;100321.69;2180283;81;51589;-78
2022/09/30 05:22:47;;;;;;;;;;;;;;;20.33;58.84;100325.20;2158358;81;52765;-75
2022/09/30 05:25:49;;;;;;;;;;;;;;;20.34;58.77;100324.98;2221484;78;51561;-75
2022/09/30 05:28:50;;;;;;;;;;;;;;;20.37;58.76;100330.47;2185394;79;52637;-74
2022/09/30 05:31:52;;;;;;;;;;;;;;;20.37;58.81;100325.95;2215674;79;51572;-75
2022/09/30 05:34:58;;;;;;;;;;;;;;;20.37;58.89;100334.50;2265182;77;53918;-75
2022/09/30 05:37:57;;;;;;;;;;;;;;;20.38;58.86;100337.52;2236721;78;22360;-75
2022/09/30 05:41:00;;;;;;;;;;;;;;;20.34;58.88;100342.97;2239096;79;49805;-78
2022/09/30 05:44:02;;;;;;;;;;;;;;;20.33;58.99;100341.32;2237096;78;50442;-77
2022/09/30 05:47:04;;;;;;;;;;;;;;;20.36;59.02;100343.60;2216575;79;50470;-78
2022/09/30 05:50:06;;;;;;;;;;;;;;;20.35;59.00;100346.81;2216564;79;51532;-79
2022/09/30 05:53:07;;;;;;;;;;;;;;;20.36;59.05;100345.77;2232344;79;49571;-79
2022/09/30 05:56:09;;;;;;;;;;;;;;;20.37;59.11;100356.84;2218810;78;50284;-77
2022/09/30 05:59:11;;;;;;;;;;;;;;;20.34;59.25;100360.44;2216050;79;50434;-78
2022/09/30 06:02:14;;;;;;;;;;;;;;;20.34;59.38;100355.87;2216145;79;50450;-78
2022/09/30 06:05:15;;;;;;;;;;;;;;;20.35;59.37;100368.83;2207297;79;51454;-79
2022/09/30 06:08:17;;;;;;;;;;;;;;;20.35;59.43;100364.27;2208796;79;51610;-78
2022/09/30 06:11:20;;;;;;;;;;;;;;;20.38;59.34;100365.20;2215217;79;50375;-79
2022/09/30 06:14:22;;;;;;;;;;;;;;;20.40;59.26;100366.36;2236237;79;50435;-79
2022/09/30 06:17:23;;;;;;;;;;;;;;;20.41;59.28;100362.63;2194825;79;49673;-79
2022/09/30 06:20:26;;;;;;;;;;;;;;;20.42;59.23;100376.37;2207239;80;50363;-78
2022/09/30 06:23:28;;;;;;;;;;;;;;;20.42;59.17;100377.72;2216583;79;51648;-79
2022/09/30 06:26:29;;;;;;;;;;;;;;;20.43;59.14;100384.77;2212777;78;51596;-79
2022/09/30 06:29:31;;;;;;;;;;;;;;;20.44;59.11;100371.63;2197845;80;50958;-78
2022/09/30 06:32:33;;;;;;;;;;;;;;;20.48;59.05;100379.61;2216057;80;51629;-79
2022/09/30 06:35:34;;;;;;;;;;;;;;;20.51;58.97;100388.61;2215545;80;51613;-79
2022/09/30 06:38:36;;;;;;;;;;;;;;;20.53;58.90;100397.31;2172519;80;54000;-79
2022/09/30 06:41:41;;;;;;;;;;;;;;;20.54;58.88;100394.95;2206870;79;51468;-78
2022/09/30 06:44:41;;;;;;;;;;;;;;;20.54;58.87;100398.98;2185579;80;22343;-77
2022/09/30 06:47:42;;;;;;;;;;;;;;;20.54;58.85;100396.79;2202490;80;50472;-79
2022/09/30 06:50:44;;;;;;;;;;;;;;;20.55;58.84;100404.70;2193310;80;50420;-78
2022/09/30 06:53:48;;;;;;;;;;;;;;;20.56;58.81;100408.20;2194182;80;50930;-79
2022/09/30 06:56:52;;;;;;;;;;;;;;;20.57;58.79;100417.91;2221816;78;50835;-79
2022/09/30 06:59:53;;;;;;;;;;;;;;;20.56;58.76;100409.55;2277382;78;23129;-78
2022/09/30 07:02:59;;;;;;;;;;;;;;;20.57;58.75;100416.56;2277334;78;51677;-79
2022/09/30 07:05:58;;;;;;;;;;;;;;;20.55;58.80;100414.09;2276554;78;23070;-79
2022/09/30 07:09:00;;;;;;;;;;;;;;;20.54;59.00;100416.45;2277359;78;50435;-78
2022/09/30 07:12:02;;;;;;;;;;;;;;;20.55;59.03;100414.59;2255588;78;50941;-79
2022/09/30 07:15:03;;;;;;;;;;;;;;;20.55;59.01;100414.09;2277060;78;50372;-78
2022/09/30 07:18:05;;;;;;;;;;;;;;;20.55;58.63;100423.51;2225421;78;51056;-78
2022/09/30 07:21:07;;;;;;;;;;;;;;;20.57;58.66;100425.98;2277114;78;51504;-78
2022/09/30 07:24:08;;;;;;;;;;;;;;;20.56;58.64;100423.81;2274069;78;51635;-78
2022/09/30 07:27:12;;;;;;;;;;;;;;;20.58;58.65;100427.13;2196591;80;50680;-80
2022/09/30 07:30:13;;;;;;;;;;;;;;;20.58;58.64;100428.48;2217078;80;22865;-79
2022/09/30 07:33:15;;;;;;;;;;;;;;;20.59;58.59;100427.95;2217614;80;50426;-79
2022/09/30 07:36:17;;;;;;;;;;;;;;;20.60;58.58;100425.08;2196526;80;51532;-79
2022/09/30 07:39:19;;;;;;;;;;;;;;;20.59;58.61;100433.33;2216421;80;50390;-79
2022/09/30 07:42:21;;;;;;;;;;;;;;;20.59;58.63;100434.16;2196719;80;49576;-78
2022/09/30 07:45:22;;;;;;;;;;;;;;;20.59;58.59;100436.84;2196356;80;50531;-78
2022/09/30 07:49:11;;;;;;;;;;;;;;;20.57;58.62;100440.23;2211016;79;51524;-78
2022/09/30 07:51:32;;;;;;;;;;;;;;;20.57;58.66;100433.52;2188111;80;22452;-79
2022/09/30 07:54:33;;;;;;;;;;;;;;;20.58;58.60;100433.85;2194343;80;50132;-79
2022/09/30 07:57:35;;;;;;;;;;;;;;;20.57;58.57;100434.86;2214713;79;51490;-79
2022/09/30 08:00:37;;;;;;;;;;;;;;;20.56;58.56;100435.91;2229183;79;51433;-79
2022/09/30 08:03:40;;;;;;;;;;;;;;;20.56;58.59;100445.84;2252088;79;50435;-78
2022/09/30 08:06:44;;;;;;;;;;;;;;;20.55;58.61;100448.19;2229537;79;51078;-79
2022/09/30 08:09:46;;;;;;;;;;;;;;;20.53;58.59;100452.41;2252596;79;51543;-79
2022/09/30 08:12:47;;;;;;;;;;;;;;;20.52;58.63;100460.66;2252566;79;51569;-79
2022/09/30 08:15:49;;;;;;;;;;;;;;;20.53;58.57;100471.23;2252362;79;51619;-78
2022/09/30 08:18:57;;;;;;;;;;;;;;;20.53;58.51;100469.06;2229430;79;52572;-78
2022/09/30 08:21:59;;;;;;;;;;;;;;;20.53;58.49;100471.23;2229491;79;51535;-78
2022/09/30 08:25:00;;;;;;;;;;;;;;;20.50;58.53;100471.63;2238597;79;50778;-79
2022/09/30 08:28:02;;;;;;;;;;;;;;;20.48;58.58;100473.69;2212292;80;50480;-79
2022/09/30 08:31:07;;;;;;;;;;;;;;;20.46;58.60;100474.39;2190204;80;49645;-78
2022/09/30 08:34:09;;;;;;;;;;;;;;;20.44;58.64;100478.61;2188860;80;51482;-79
2022/09/30 08:37:11;;;;;;;;;;;;;;;20.44;58.61;100478.61;2210449;80;51545;-78
2022/09/30 08:40:19;;;;;;;;;;;;;;;20.45;58.50;100476.78;2189535;80;50457;-78
2022/09/30 08:43:25;;;;;;;;;;;;;;;20.44;58.51;100486.67;2190032;80;49689;-78
2022/09/30 08:46:44;;;;;;;;;;;;;;;20.44;58.47;100481.81;2209928;79;51641;-78
2022/09/30 08:49:47;;;;;;;;;;;;;;;20.41;58.49;100491.11;2210131;80;50741;-78
2022/09/30 08:52:49;;;;;;;;;;;;;;;20.42;58.46;100489.24;2210059;79;50738;-79
2022/09/30 08:55:51;;;;;;;;;;;;;;;20.41;58.48;100492.97;2191847;80;50177;-79
2022/09/30 08:58:54;;;;;;;;;;;;;;;20.41;58.45;100489.77;2214288;80;50632;-79
2022/09/30 09:01:57;;;;;;;;;;;;;;;20.43;58.37;100491.75;2215633;80;50731;-78
2022/09/30 09:05:00;;;;;;;;;;;;;;;20.42;58.36;100494.62;2214220;79;51836;-78
2022/09/30 09:08:03;;;;;;;;;;;;;;;20.41;58.33;100496.48;2197254;79;49648;-79
2022/09/30 09:11:07;;;;;;;;;;;;;;;20.40;58.36;100498.05;2213828;79;50924;-78
2022/09/30 09:14:13;;;;;;;;;;;;;;;20.38;58.34;100498.23;2214432;80;52133;-78
2022/09/30 09:17:19;;;;;;;;;;;;;;;20.37;58.40;100499.76;2215245;78;51642;-78
2022/09/30 09:20:22;;;;;;;;;;;;;;;20.39;58.40;100497.71;2193532;80;50976;-78
2022/09/30 09:23:23;;;;;;;;;;;;;;;20.40;58.30;100502.08;2197602;80;50773;-79
2022/09/30 09:26:25;;;;;;;;;;;;;;;20.38;58.29;100501.44;2216129;80;50796;-78
2022/09/30 09:29:45;;;;;;;;;;;;;;;20.39;58.27;100503.91;2210591;80;51720;-78
2022/09/30 09:32:48;;;;;;;;;;;;;;;20.37;58.28;100493.04;2189968;80;51128;-78
2022/09/30 09:36:00;;;;;;;;;;;;;;;20.35;58.29;100492.44;2212195;80;51795;-80
2022/09/30 09:39:15;;;;;;;;;;;;;;;20.35;58.30;100497.81;2214344;80;54693;-79
2022/09/30 09:42:19;;;;;;;;;;;;;;;20.36;58.31;100504.83;2201598;80;52424;-78
2022/09/30 09:45:28;;;;;;;;;;;;;;;20.37;58.25;100504.64;2189323;79;51102;-79
2022/09/30 09:48:34;;;;;;;;;;;;;;;20.37;58.22;100502.45;2208225;80;51798;-78
2022/09/30 09:51:33;;;;;;;;;;;;;;;20.36;58.21;100502.97;2209358;80;22283;-78
2022/09/30 09:54:36;;;;;;;;;;;;;;;20.35;58.21;100499.98;2210132;80;50930;-78
2022/09/30 09:57:39;;;;;;;;;;;;;;;20.34;58.20;100494.27;2194210;80;51160;-79
2022/09/30 10:03:51;;;;;;;;;;;;;;;20.35;58.25;100493.78;2215980;80;22328;-79
2022/09/30 10:06:59;;;;;;;;;;;;;;;20.36;58.17;100484.67;2215194;80;50497;-78
2022/09/30 10:10:06;;;;;;;;;;;;;;;20.37;58.12;100491.70;2214540;80;22438;-79
2022/09/30 10:13:16;;;;;;;;;;;;;;;20.36;58.10;100492.22;2192472;80;51565;-79
2022/09/30 10:16:36;;;;;;;;;;;;;;;20.35;58.06;100478.48;2214378;80;50606;-78
2022/09/30 10:19:38;;;;;;;;;;;;;;;20.34;58.07;100478.14;2215779;80;50828;-78
2022/09/30 10:22:39;;;;;;;;;;;;;;;20.33;58.08;100475.16;2193567;80;51040;-79
2022/09/30 10:25:42;;;;;;;;;;;;;;;20.35;58.12;100484.37;2190089;80;50437;-78
2022/09/30 10:28:46;;;;;;;;;;;;;;;20.37;58.08;100477.77;2206366;79;50460;-78
2022/09/30 10:31:49;;;;;;;;;;;;;;;20.37;58.03;100479.61;2178879;80;50502;-78
2022/09/30 10:34:55;;;;;;;;;;;;;;;20.36;57.99;100477.95;2158707;81;51058;-78
2022/09/30 10:37:57;;;;;;;;;;;;;;;20.36;58.00;100479.30;2180190;81;51586;-79
2022/09/30 10:40:59;;;;;;;;;;;;;;;20.33;58.01;100472.47;2180030;80;51632;-78
2022/09/30 10:44:01;;;;;;;;;;;;;;;20.33;58.00;100472.98;2180317;81;50784;-79
2022/09/30 10:47:02;;;;;;;;;;;;;;;20.33;58.02;100456.87;2135266;81;49729;-79
2022/09/30 10:50:07;;;;;;;;;;;;;;;20.35;58.03;100458.84;2158922;81;49535;-78
2022/09/30 10:53:13;;;;;;;;;;;;;;;20.37;57.97;100470.20;2180359;81;50853;-78
2022/09/30 10:56:16;;;;;;;;;;;;;;;20.37;57.92;100466.17;2195556;80;51984;-79
2022/09/30 10:59:20;;;;;;;;;;;;;;;20.36;57.89;100466.69;2208921;80;51555;-79
2022/09/30 11:02:26;;;;;;;;;;;;;;;20.36;57.84;100469.89;2187130;80;51030;-78
2022/09/30 11:05:28;;;;;;;;;;;;;;;20.34;57.88;100455.30;2210269;80;51522;-79
2022/09/30 11:08:29;;;;;;;;;;;;;;;;;;2210483;80;51601;-77
2022/09/30 11:11:32;;;;;;;;;;;;;;;20.35;57.90;100454.30;2210557;80;51519;-80
2022/09/30 11:14:38;;;;;;;;;;;;;;;20.37;57.81;100453.59;2205847;80;50905;-79
2022/09/30 11:17:42;;;;;;;;;;;;;;;20.37;57.78;100450.90;2188479;80;50215;-80
2022/09/30 11:20:45;;;;;;;;;;;;;;;20.36;57.78;100453.25;2198614;80;50533;-79
2022/09/30 11:23:48;;;;;;;;;;;;;;;20.37;57.73;100448.70;2210421;80;50812;-80
2022/09/30 11:26:52;;;;;;;;;;;;;;;20.35;57.79;100457.50;2168117;80;52833;-79
2022/09/30 11:29:55;;;;;;;;;;;;;;;20.34;57.78;100453.14;2193399;80;49718;-79
2022/09/30 11:32:58;;;;;;;;;;;;;;;20.35;57.82;100440.86;2215285;80;50314;-78
2022/09/30 11:36:07;;;;;;;;;;;;;;;20.38;57.75;100442.31;2214625;80;50428;-79
2022/09/30 11:39:13;;;;;;;;;;;;;;;20.37;57.72;100444.67;2215291;80;50901;-77
2022/09/30 11:42:25;;;;;;;;;;;;;;;20.37;57.70;100444.67;2191635;80;52541;-78
2022/09/30 11:45:31;;;;;;;;;;;;;;;20.36;57.69;100439.00;2214739;80;50502;-78
2022/09/30 11:48:40;;;;;;;;;;;;;;;20.34;57.67;100445.90;2213768;79;51697;-78
2022/09/30 11:51:44;;;;;;;;;;;;;;;20.34;57.70;100449.11;2214915;80;50515;-77
2022/09/30 11:54:53;;;;;;;;;;;;;;;20.36;57.74;100447.06;2192667;80;52603;-78
2022/09/30 11:57:56;;;;;;;;;;;;;;;20.36;57.69;100443.03;2239496;79;50494;-76
2022/09/30 12:00:59;;;;;;;;;;;;;;;20.38;57.65;100439.63;2251742;79;50827;-77
2022/09/30 12:04:04;;;;;;;;;;;;;;;20.37;57.61;100445.52;2251914;79;51598;-77
2022/09/30 12:07:06;;;;;;;;;;;;;;;20.38;57.58;100450.37;2251431;79;50306;-78
2022/09/30 12:10:09;;;;;;;;;;;;;;;20.37;57.59;100445.52;2251882;79;51618;-78
2022/09/30 12:13:12;;;;;;;;;;;;;;;20.36;57.59;100450.56;2227250;79;51399;-79
2022/09/30 12:16:15;;;;;;;;;;;;;;;20.37;57.65;100448.70;2251865;79;51631;-78
2022/09/30 12:19:20;;;;;;;;;;;;;;;20.38;57.60;100447.69;2228568;79;51906;-80
2022/09/30 12:22:24;;;;;;;;;;;;;;;20.39;57.61;100453.37;2251998;79;50453;-78
2022/09/30 12:25:27;;;;;;;;;;;;;;;20.37;57.62;100443.33;2233650;79;51560;-78
2022/09/30 12:31:57;;;;;;;;;;;;;;;20.36;57.63;100451.09;2215570;80;22298;-78
2022/09/30 12:35:10;;;;;;;;;;;;;;;20.34;57.69;100447.24;2214847;80;50846;-78
2022/09/30 12:38:30;;;;;;;;;;;;;;;20.36;57.68;100443.03;2215003;80;51576;-78
2022/09/30 12:41:51;;;;;;;;;;;;;;;20.37;57.66;100443.33;2215696;80;51573;-78
2022/09/30 12:45:07;;;;;;;;;;;;;;;20.37;57.79;100440.16;2193441;80;51183;-78
2022/09/30 12:48:12;;;;;;;;;;;;;;;20.39;57.75;100439.41;2215889;79;51684;-79
2022/09/30 12:51:31;;;;;;;;;;;;;;;20.40;57.79;100442.44;2215916;80;22938;-78
2022/09/30 12:54:37;;;;;;;;;;;;;;;20.37;57.86;100446.87;2214958;80;50425;-79
2022/09/30 12:57:40;;;;;;;;;;;;;;;20.35;58.04;100446.75;2191420;79;51969;-78
2022/09/30 13:00:41;;;;;;;;;;;;;;;20.37;58.00;100455.42;2214694;80;50452;-78
2022/09/30 13:03:45;;;;;;;;;;;;;;;20.35;58.06;100448.09;2192234;80;50433;-79
2022/09/30 13:06:49;;;;;;;;;;;;;;;20.35;58.04;100444.06;2215164;80;51534;-79
2022/09/30 13:09:55;;;;;;;;;;;;;;;20.34;58.06;100446.42;2193431;80;50993;-78
2022/09/30 13:13:20;;;;;;;;;;;;;;;20.33;58.06;100448.80;2215851;80;51658;-79
2022/09/30 13:16:18;;;;;;;;;;;;;;;20.33;58.02;100450.97;2214170;79;22858;-79
2022/09/30 13:19:20;;;;;;;;;;;;;;;20.33;58.04;100450.15;2211758;79;50548;-79
2022/09/30 13:22:29;;;;;;;;;;;;;;;20.34;58.04;100444.55;2193775;80;49956;-78
2022/09/30 13:25:32;;;;;;;;;;;;;;;20.36;58.04;100449.74;2215634;80;50451;-78
2022/09/30 13:28:37;;;;;;;;;;;;;;;20.37;58.00;100451.39;2213062;79;50500;-78
2022/09/30 13:31:47;;;;;;;;;;;;;;;20.36;58.04;100443.03;2192238;80;51393;-79
2022/09/30 13:34:50;;;;;;;;;;;;;;;20.34;58.05;100448.59;2194056;81;50869;-79
2022/09/30 13:37:59;;;;;;;;;;;;;;;20.32;58.06;100451.16;2202038;79;50814;-79
2022/09/30 13:41:05;;;;;;;;;;;;;;;20.35;58.02;100446.75;2161344;80;50706;-79
2022/09/30 13:44:09;;;;;;;;;;;;;;;20.35;58.05;100443.55;2203239;80;50339;-80
2022/09/30 13:47:12;;;;;;;;;;;;;;;20.36;58.01;100445.19;2193426;80;52742;-79
2022/09/30 13:50:30;;;;;;;;;;;;;;;20.34;58.05;100442.39;2213649;79;50994;-80
2022/09/30 13:53:36;;;;;;;;;;;;;;;20.35;58.03;100440.03;2214906;80;50734;-80
2022/09/30 13:56:39;;;;;;;;;;;;;;;20.35;58.00;100434.66;2200067;80;51622;-80
2022/09/30 13:59:55;;;;;;;;;;;;;;;20.37;58.03;100436.61;2190029;80;49721;-78
2022/09/30 14:03:07;;;;;;;;;;;;;;;20.36;58.05;100436.30;2208497;79;50340;-79
2022/09/30 14:06:11;;;;;;;;;;;;;;;20.36;58.04;100444.37;2209117;80;50412;-79
2022/09/30 14:09:14;;;;;;;;;;;;;;;20.37;58.04;100435.27;2209930;79;51573;-79
2022/09/30 14:12:22;;;;;;;;;;;;;;;20.36;58.03;100436.30;2189997;80;50231;-79
2022/09/30 14:15:28;;;;;;;;;;;;;;;20.36;58.05;100440.34;2209596;80;50343;-79
2022/09/30 14:18:43;;;;;;;;;;;;;;;20.39;58.17;100439.94;2208732;80;50850;-79
2022/09/30 14:21:46;;;;;;;;;;;;;;;20.39;58.34;100436.72;2206755;80;50734;-78
2022/09/30 14:24:47;;;;;;;;;;;;;;;20.45;58.07;100440.49;2186096;80;50280;-78
2022/09/30 14:27:52;;;;;;;;;;;;;;;20.47;57.97;100437.06;2225172;77;51553;-77
2022/09/30 14:31:07;;;;;;;;;;;;;;;20.54;57.93;100435.77;2209857;79;50349;-78
2022/09/30 14:34:09;;;;;;;;;;;;;;;20.55;57.97;100437.44;2189238;80;49397;-77
2022/09/30 14:37:27;;;;;;;;;;;;;;;20.45;58.10;100445.87;2209934;80;51533;-77
2022/09/30 14:40:32;;;;;;;;;;;;;;;20.40;58.27;100444.30;2209880;80;50870;-78
2022/09/30 14:43:35;;;;;;;;;;;;;;;20.40;58.23;100451.02;2209469;80;50287;-78
2022/09/30 14:46:40;;;;;;;;;;;;;;;20.39;58.18;100447.99;2209665;80;51519;-78
2022/09/30 14:49:42;;;;;;;;;;;;;;;20.37;58.19;100448.70;2189307;80;51071;-78
2022/09/30 14:52:44;;;;;;;;;;;;;;;20.37;58.16;100448.22;2209956;80;51578;-77
2022/09/30 14:55:47;;;;;;;;;;;;;;;20.36;58.14;100449.22;2222927;79;51574;-78
2022/09/30 14:58:51;;;;;;;;;;;;;;;20.41;58.07;100449.97;2213282;79;51577;-78
2022/09/30 15:01:54;;;;;;;;;;;;;;;20.35;58.28;100455.64;2189593;80;50197;-78
2022/09/30 15:04:58;;;;;;;;;;;;;;;20.31;58.72;100460.27;2209576;80;50497;-78
2022/09/30 15:07:59;;;;;;;;;;;;;;;20.30;58.68;100450.55;2209829;80;50832;-77
2022/09/30 15:11:01;;;;;;;;;;;;;;;20.39;58.34;100450.68;2209973;80;50784;-79
2022/09/30 15:14:04;;;;;;;;;;;;;;;20.42;58.19;100454.30;2189614;80;52640;-78
2022/09/30 15:17:07;;;;;;;;;;;;;;;20.44;58.15;100457.63;2209846;80;50871;-77
2022/09/30 15:20:23;;;;;;;;;;;;;;;20.43;58.10;100460.02;2208236;78;50578;-77
2022/09/30 15:23:26;;;;;;;;;;;;;;;20.39;58.22;100458.75;2210214;80;50336;-78
2022/09/30 15:26:27;;;;;;;;;;;;;;;20.33;58.37;100466.27;2209877;79;51052;-79
2022/09/30 15:29:29;;;;;;;;;;;;;;;20.36;58.27;100461.84;2193854;80;51623;-79
2022/09/30 15:32:31;;;;;;;;;;;;;;;20.37;58.17;100470.20;2216520;80;51591;-79
2022/09/30 15:35:33;;;;;;;;;;;;;;;20.34;58.20;100469.26;2194909;80;51662;-79
2022/09/30 15:38:35;;;;;;;;;;;;;;;20.39;57.99;100469.49;2196505;80;50076;-78
2022/09/30 15:41:38;;;;;;;;;;;;;;;20.38;58.05;100463.81;2216531;80;51451;-79
2022/09/30 15:44:40;;;;;;;;;;;;;;;20.35;58.04;100455.64;2216293;80;50481;-79
2022/09/30 15:47:44;;;;;;;;;;;;;;;20.33;58.06;100463.06;2216642;80;51634;-80
2022/09/30 15:50:51;;;;;;;;;;;;;;;20.35;58.06;100460.19;2195081;80;51240;-79
2022/09/30 15:53:50;;;;;;;;;;;;;;;20.35;58.06;100453.47;2215585;79;22373;-78